Time;durP1;ratioP1;P1;durP2;ratioP2;P2;SDS_P1;SDS_P2;PMS_P1;PMS_P2;Temp;Humidity;BMP_temperature;BMP_pressure;BME280_temperature;BME280_humidity;BME280_pressure;Samples;Min_cycle;Max_cycle;Signal;HPM_P1;HPM_P2
2022/12/29 00:01:36;;;;;;;4.27;0.77;;;;;;;9.35;92.52;99187.22;5072732;28;20166;-74
2022/12/29 00:04:03;;;;;;;0.77;0.77;;;;;;;9.36;91.86;99180.66;5071984;28;20650;-74
2022/12/29 00:06:28;;;;;;;0.07;0.07;;;;;;;9.34;91.78;99177.47;5072258;28;20642;-74
2022/12/29 00:08:53;;;;;;;0.50;0.50;;;;;;;9.40;91.79;99178.88;5072066;28;20174;-74
2022/12/29 00:11:22;;;;;;;0.50;0.50;;;;;;;9.39;91.91;99173.72;5072001;28;20637;-74
2022/12/29 00:16:33;;;;;;;0.20;0.20;;;;;;;9.39;92.37;99173.72;5072300;28;20166;-74
2022/12/29 00:18:59;;;;;;;2.03;0.93;;;;;;;9.41;92.49;99174.22;5071875;28;20194;-74
2022/12/29 00:35:39;;;;;;;1.13;0.57;;;;;;;9.53;92.00;99175.03;5042677;28;20193;-74
2022/12/29 00:46:19;;;;;;;0.53;0.53;;;;;;;9.62;92.67;99157.81;5071405;28;20223;-74
2022/12/29 00:51:29;;;;;;;0.30;0.30;;;;;;;9.50;94.88;99164.00;5071199;28;20173;-74
2022/12/29 00:53:54;;;;;;;0.20;0.20;;;;;;;9.49;95.41;99168.66;5071389;28;20535;-74
2022/12/29 00:56:19;;;;;;;0.20;0.20;;;;;;;9.53;95.49;99150.50;5071102;28;20166;-74
2022/12/29 00:58:45;;;;;;;0.30;0.20;;;;;;;9.61;94.81;99153.50;5071143;28;20540;-74
2022/12/29 01:01:10;;;;;;;0.40;0.40;;;;;;;9.57;94.83;99147.13;5071263;28;20668;-74
2022/12/29 01:03:37;;;;;;;1.20;0.27;;;;;;;9.63;94.65;99159.41;5070881;28;20182;-74
2022/12/29 01:06:10;;;;;;;0.70;0.63;;;;;;;9.67;94.55;99154.84;5070811;28;20193;-74
2022/12/29 01:08:35;;;;;;;0.60;0.60;;;;;;;9.64;94.61;99150.09;5071050;28;20167;-74
2022/12/29 01:11:03;;;;;;;0.73;0.40;;;;;;;9.66;94.52;99140.44;5070859;28;20175;-74
2022/12/29 01:13:29;;;;;;;0.53;0.53;;;;;;;9.66;94.84;99139.63;5071003;28;20638;-74
2022/12/29 01:15:54;;;;;;;0.43;0.27;;;;;;;9.61;94.86;99137.13;5070786;28;20181;-74
2022/12/29 01:18:21;;;;;;;0.40;0.33;;;;;;;9.55;95.70;99142.00;5070699;28;20285;-74
2022/12/29 01:20:46;;;;;;;0.23;0.23;;;;;;;9.53;96.25;99146.97;5070672;28;20174;-75
2022/12/29 01:23:12;;;;;;;1.43;0.73;;;;;;;9.53;96.67;99142.31;5069170;28;20553;-74
2022/12/29 01:25:37;;;;;;;0.20;0.20;;;;;;;9.51;97.11;99132.88;5070958;28;20171;-74
2022/12/29 01:28:02;;;;;;;0.40;0.40;;;;;;;9.51;97.18;99128.22;5070917;28;20673;-74
2022/12/29 01:30:28;;;;;;;0.57;0.57;;;;;;;9.53;97.52;99120.50;5070644;28;20224;-74
2022/12/29 01:32:53;;;;;;;1.03;0.73;;;;;;;9.54;97.66;99138.44;5070433;28;20167;-74
2022/12/29 01:35:18;;;;;;;0.20;0.20;;;;;;;9.54;98.35;99103.00;5070752;28;20228;-74
2022/12/29 01:37:43;;;;;;;0.30;0.30;;;;;;;9.53;98.55;99106.88;5070376;28;20182;-74
2022/12/29 01:40:09;;;;;;;0.60;0.40;;;;;;;9.55;98.72;99103.84;5070468;28;20465;-74
2022/12/29 01:42:35;;;;;;;0.20;0.20;;;;;;;9.53;98.82;99103.34;5070266;28;20179;-74
2022/12/29 01:45:08;;;;;;;0.20;0.20;;;;;;;9.53;99.01;99093.25;5070422;28;20186;-74
2022/12/29 01:47:39;;;;;;;1.00;0.40;;;;;;;9.51;99.28;99090.06;5070408;28;20795;-74
2022/12/29 01:50:10;;;;;;;0.50;0.50;;;;;;;9.56;99.01;99091.78;5070556;28;20175;-74
2022/12/29 01:52:40;;;;;;;6.70;1.67;;;;;;;9.54;99.12;99083.13;5068931;28;20228;-74
2022/12/29 01:55:07;;;;;;;0.17;0.17;;;;;;;9.53;99.43;99087.00;5070328;28;20202;-74
2022/12/29 01:57:36;;;;;;;0.23;0.23;;;;;;;9.53;99.74;99074.16;5070348;28;20680;-74
2022/12/29 02:00:11;;;;;;;0.00;0.00;;;;;;;9.56;99.85;99077.38;5070185;28;20280;-74
2022/12/29 02:02:37;;;;;;;0.10;0.10;;;;;;;9.50;100.00;99053.03;5070108;28;20259;-74
2022/12/29 02:05:10;;;;;;;0.10;0.10;;;;;;;9.55;100.00;99071.13;5070184;28;20178;-74
2022/12/29 02:07:37;;;;;;;0.40;0.33;;;;;;;9.63;100.00;99063.97;5069129;28;20224;-74
2022/12/29 02:10:03;;;;;;;0.10;0.10;;;;;;;9.73;99.49;99058.88;5070145;28;20626;-74
2022/12/29 02:12:28;;;;;;;0.30;0.30;;;;;;;9.78;99.23;99055.91;5069954;28;20235;-74
2022/12/29 02:15:00;;;;;;;0.00;0.00;;;;;;;9.82;98.38;99056.81;5069933;28;20182;-75
2022/12/29 02:17:57;;;;;;;0.60;0.60;;;;;;;9.88;98.00;99053.88;5070044;28;20179;-74
2022/12/29 02:20:46;;;;;;;0.10;0.10;;;;;;;9.93;96.96;99056.38;5070040;28;20186;-74
2022/12/29 02:23:37;;;;;;;0.40;0.40;;;;;;;9.92;96.77;99055.56;5070401;28;20179;-74
2022/12/29 02:26:33;;;;;;;0.50;0.40;;;;;;;9.96;96.77;99052.94;5068633;28;20203;-74
2022/12/29 02:29:28;;;;;;;0.30;0.10;;;;;;;9.96;96.36;99047.50;5070073;28;20189;-74
2022/12/29 02:32:03;;;;;;;0.00;0.00;;;;;;;9.96;96.34;99048.28;5069934;28;20177;-74
2022/12/29 02:34:31;;;;;;;0.30;0.30;;;;;;;10.08;95.91;99053.75;5069749;28;20638;-74
2022/12/29 02:37:28;;;;;;;2.83;0.53;;;;;;;10.13;95.53;99052.75;5068754;28;20178;-74
2022/12/29 02:40:07;;;;;;;10.40;0.67;;;;;;;10.10;95.39;99054.19;5055172;28;20301;-75
2022/12/29 02:42:41;;;;;;;0.80;0.80;;;;;;;10.11;95.18;99063.19;5069765;28;20202;-74
2022/12/29 02:45:16;;;;;;;1.07;0.30;;;;;;;10.13;94.90;99069.91;5069934;28;20174;-74
2022/12/29 02:47:52;;;;;;;0.00;0.00;;;;;;;10.14;94.70;99068.78;5069825;28;20206;-74
2022/12/29 02:50:27;;;;;;;0.00;0.00;;;;;;;10.17;94.71;99066.47;5069771;28;20181;-74
2022/12/29 02:53:00;;;;;;;0.00;0.00;;;;;;;10.14;94.05;99066.03;5072219;28;20381;-74
2022/12/29 02:55:25;;;;;;;0.77;0.77;;;;;;;10.11;94.19;99061.25;5073563;28;20173;-74
2022/12/29 02:58:14;;;;;;;0.13;0.10;;;;;;;10.09;93.99;99055.34;5073206;28;20179;-74
2022/12/29 03:00:53;;;;;;;0.10;0.10;;;;;;;10.07;94.54;99056.81;5073229;28;20239;-74
2022/12/29 03:03:41;;;;;;;0.23;0.23;;;;;;;10.09;94.26;99057.25;5071532;28;20175;-74
2022/12/29 03:06:16;;;;;;;0.20;0.20;;;;;;;10.13;94.28;99044.56;5073186;28;20224;-74
2022/12/29 03:08:53;;;;;;;0.63;0.63;;;;;;;10.14;93.86;99041.47;5073264;28;20200;-74
2022/12/29 03:17:09;;;;;;;0.90;0.43;;;;;;;10.05;95.87;99048.97;5073060;28;20186;-74
2022/12/29 03:19:47;;;;;;;0.57;0.57;;;;;;;9.97;96.78;99044.41;5071432;28;20237;-74
2022/12/29 03:22:27;;;;;;;0.30;0.20;;;;;;;9.96;97.68;99052.94;5072899;28;20177;-74
2022/12/29 03:25:11;;;;;;;0.67;0.20;;;;;;;9.93;98.31;99045.44;5072851;28;20466;-74
2022/12/29 03:27:43;;;;;;;0.37;0.37;;;;;;;9.93;98.71;99034.53;5072657;28;20175;-74
2022/12/29 03:30:09;;;;;;;0.27;0.27;;;;;;;9.94;99.11;99030.66;5072784;28;20506;-74
2022/12/29 03:32:41;;;;;;;1.83;0.63;;;;;;;9.94;99.53;99017.03;5072686;28;20249;-74
2022/12/29 03:35:09;;;;;;;0.20;0.20;;;;;;;9.92;99.88;99020.09;5071355;28;20532;-74
2022/12/29 03:37:45;;;;;;;0.40;0.40;;;;;;;9.94;100.00;99012.38;5072986;28;20167;-74
2022/12/29 03:40:11;;;;;;;0.00;0.00;;;;;;;9.91;100.00;98998.63;5072309;28;20188;-74
2022/12/29 03:42:36;;;;;;;0.03;0.03;;;;;;;9.91;100.00;99004.09;5072105;28;20832;-74
2022/12/29 03:45:04;;;;;;;0.30;0.27;;;;;;;9.94;100.00;99006.13;5072392;28;20174;-74
2022/12/29 03:47:29;;;;;;;0.07;0.07;;;;;;;9.99;100.00;99001.25;5072283;28;20175;-74
2022/12/29 03:49:55;;;;;;;0.63;0.50;;;;;;;10.02;100.00;99008.75;5072209;28;20193;-74
2022/12/29 03:52:20;;;;;;;0.40;0.40;;;;;;;10.00;100.00;98993.84;5072396;28;20266;-74
2022/12/29 03:54:46;;;;;;;0.20;0.20;;;;;;;9.96;100.00;98995.66;5071863;28;20179;-74
2022/12/29 03:57:11;;;;;;;0.30;0.30;;;;;;;9.96;100.00;99003.84;5072103;28;20174;-74
2022/12/29 03:59:36;;;;;;;0.00;0.00;;;;;;;9.92;100.00;98997.47;5072044;28;20229;-75
2022/12/29 04:02:02;;;;;;;0.33;0.33;;;;;;;9.88;100.00;98983.75;5072078;28;20591;-74
2022/12/29 04:04:27;;;;;;;0.10;0.10;;;;;;;9.94;100.00;98996.00;5070759;28;20204;-74
2022/12/29 04:06:53;;;;;;;0.10;0.10;;;;;;;10.00;100.00;99002.84;5071920;28;20678;-74
2022/12/29 04:09:18;;;;;;;0.33;0.33;;;;;;;10.04;100.00;99002.94;5071918;28;20249;-74
2022/12/29 04:11:43;;;;;;;0.20;0.20;;;;;;;10.04;100.00;99009.19;5071768;28;20182;-74
2022/12/29 04:14:09;;;;;;;0.00;0.00;;;;;;;10.05;99.92;98999.84;5071690;28;20227;-74
2022/12/29 04:16:35;;;;;;;0.33;0.33;;;;;;;10.05;99.63;98999.06;5071673;28;20171;-75
2022/12/29 04:19:01;;;;;;;0.50;0.50;;;;;;;10.13;99.07;99009.88;5071573;28;20205;-74
2022/12/29 04:21:27;;;;;;;0.03;0.03;;;;;;;10.13;99.41;99006.34;5071648;28;20170;-74
2022/12/29 04:23:52;;;;;;;0.00;0.00;;;;;;;10.17;98.85;98998.25;5071450;28;20660;-74
2022/12/29 04:26:17;;;;;;;0.33;0.30;;;;;;;10.22;98.01;99001.56;5071415;28;20171;-74
2022/12/29 04:28:43;;;;;;;0.10;0.10;;;;;;;10.20;97.16;98994.84;5071579;28;20653;-74
2022/12/29 04:31:08;;;;;;;0.07;0.07;;;;;;;10.32;96.33;98994.84;5071378;28;20175;-74
2022/12/29 04:33:33;;;;;;;0.20;0.20;;;;;;;10.38;96.04;99004.38;5071378;28;20175;-74
2022/12/29 04:35:58;;;;;;;0.00;0.00;;;;;;;10.36;95.11;99004.72;5071955;28;20181;-74
2022/12/29 04:38:24;;;;;;;0.00;0.00;;;;;;;10.31;94.79;99001.44;5071630;28;20213;-74
2022/12/29 04:40:50;;;;;;;0.10;0.10;;;;;;;10.45;94.57;98995.59;5071983;28;20174;-74
2022/12/29 04:43:16;;;;;;;2.23;0.30;;;;;;;10.46;94.21;98997.19;5072119;28;20232;-74
2022/12/29 04:45:45;;;;;;;0.03;0.03;;;;;;;10.52;93.34;99007.50;5072884;28;20642;-74
2022/12/29 04:48:11;;;;;;;0.17;0.17;;;;;;;10.53;92.56;99000.91;5079040;28;20703;-74
2022/12/29 04:50:37;;;;;;;0.00;0.00;;;;;;;10.64;91.11;98996.56;5071952;28;20183;-74
2022/12/29 04:53:02;;;;;;;0.30;0.30;;;;;;;10.69;90.48;99007.22;5071344;28;20178;-74
2022/12/29 04:55:27;;;;;;;0.00;0.00;;;;;;;10.72;90.28;98989.38;5071521;28;20170;-74
2022/12/29 04:57:53;;;;;;;0.00;0.00;;;;;;;10.81;89.11;98981.00;5071658;28;20166;-74
2022/12/29 05:00:18;;;;;;;0.00;0.00;;;;;;;10.76;89.04;98989.47;5072400;28;20174;-74
2022/12/29 05:02:45;;;;;;;0.13;0.13;;;;;;;10.82;88.62;98988.06;5071356;28;20170;-74
2022/12/29 05:05:10;;;;;;;0.00;0.00;;;;;;;10.88;87.74;98979.28;5071667;28;20170;-74
2022/12/29 05:07:35;;;;;;;0.13;0.10;;;;;;;10.88;88.04;98978.47;5071227;28;20707;-74
2022/12/29 05:10:01;;;;;;;0.03;0.03;;;;;;;10.81;88.28;98983.75;5071658;28;20183;-74
2022/12/29 05:12:29;;;;;;;0.00;0.00;;;;;;;10.94;87.15;98974.34;5071929;28;20170;-75
2022/12/29 05:14:55;;;;;;;0.10;0.10;;;;;;;10.97;86.38;98965.44;5074784;28;20181;-74
2022/12/29 05:17:20;;;;;;;0.00;0.00;;;;;;;11.03;85.94;98972.25;5072409;28;20167;-74
2022/12/29 05:19:45;;;;;;;0.00;0.00;;;;;;;10.96;86.15;98967.38;5071825;28;20533;-74
2022/12/29 05:22:10;;;;;;;0.43;0.43;;;;;;;10.92;86.20;98958.28;5071305;28;20188;-74
2022/12/29 05:24:36;;;;;;;0.00;0.00;;;;;;;10.99;86.29;98971.34;5070892;28;20533;-75
2022/12/29 05:27:01;;;;;;;0.27;0.27;;;;;;;10.99;85.89;98966.69;5071553;28;20170;-74
2022/12/29 05:29:26;;;;;;;0.00;0.00;;;;;;;10.96;86.08;98969.31;5069768;28;20167;-74
2022/12/29 05:31:51;;;;;;;0.00;0.00;;;;;;;10.95;86.61;98965.00;5070951;28;20224;-74
2022/12/29 05:34:17;;;;;;;0.13;0.13;;;;;;;10.98;86.32;98967.03;5069518;28;20202;-74
2022/12/29 05:36:42;;;;;;;0.00;0.00;;;;;;;10.84;87.29;98963.91;5070933;28;20170;-74
2022/12/29 05:39:07;;;;;;;0.00;0.00;;;;;;;10.77;88.05;98952.81;5070720;28;20202;-74
2022/12/29 05:41:34;;;;;;;0.00;0.00;;;;;;;10.79;88.51;98958.72;5069556;28;20232;-74
2022/12/29 05:44:00;;;;;;;0.53;0.53;;;;;;;10.76;88.96;98968.41;5070706;28;20167;-74
2022/12/29 05:46:25;;;;;;;0.47;0.27;;;;;;;10.73;89.89;98975.34;5070779;28;20175;-74
2022/12/29 05:48:51;;;;;;;0.00;0.00;;;;;;;10.67;90.93;98967.75;5070733;28;20289;-74
2022/12/29 05:51:16;;;;;;;0.43;0.23;;;;;;;10.64;91.95;98968.44;5069509;28;20793;-74
2022/12/29 05:53:41;;;;;;;0.10;0.10;;;;;;;10.62;93.00;98965.28;5070585;28;20179;-74
2022/12/29 05:56:07;;;;;;;0.87;0.20;;;;;;;10.58;93.70;98970.66;5070684;28;20162;-74
2022/12/29 05:58:32;;;;;;;0.23;0.10;;;;;;;10.50;94.96;98957.13;5070570;28;20202;-74
2022/12/29 06:00:58;;;;;;;0.10;0.10;;;;;;;10.45;95.68;98960.91;5070666;28;20174;-74
2022/12/29 06:03:23;;;;;;;4.13;1.00;;;;;;;10.39;97.69;98960.34;5070226;28;20185;-74
2022/12/29 06:05:48;;;;;;;0.33;0.33;;;;;;;10.36;98.13;98955.56;5070922;28;20639;-74
2022/12/29 06:08:14;;;;;;;0.00;0.00;;;;;;;10.29;99.61;98954.59;5070757;28;20178;-74
2022/12/29 06:10:39;;;;;;;0.10;0.10;;;;;;;10.31;100.00;98946.84;5070565;28;20209;-74
2022/12/29 06:13:07;;;;;;;0.47;0.40;;;;;;;10.31;100.00;98947.66;5070267;28;20170;-74
2022/12/29 06:15:33;;;;;;;0.73;0.70;;;;;;;10.31;100.00;98947.66;5070468;28;20201;-74
2022/12/29 06:17:59;;;;;;;0.20;0.20;;;;;;;10.33;99.71;98936.38;5069224;28;20171;-74
2022/12/29 06:20:24;;;;;;;0.07;0.07;;;;;;;10.33;99.76;98934.44;5070406;28;20163;-74
2022/12/29 06:22:49;;;;;;;1.27;0.90;;;;;;;10.36;99.59;98932.94;5070145;28;20411;-74
2022/12/29 06:25:15;;;;;;;0.80;0.60;;;;;;;10.39;99.36;98915.88;5070445;28;20170;-74
2022/12/29 06:27:41;;;;;;;0.07;0.07;;;;;;;10.48;98.35;98934.84;5073096;28;20173;-74
2022/12/29 06:30:07;;;;;;;0.63;0.10;;;;;;;10.50;98.11;98916.16;5074242;28;20186;-74
2022/12/29 06:32:32;;;;;;;0.13;0.13;;;;;;;10.47;98.13;98934.03;5074252;28;20179;-74
2022/12/29 06:34:57;;;;;;;0.40;0.30;;;;;;;10.57;97.50;98924.56;5074051;28;20178;-74
2022/12/29 06:37:23;;;;;;;0.00;0.00;;;;;;;10.63;96.41;98921.22;5074021;28;20676;-74
2022/12/29 06:39:48;;;;;;;0.03;0.03;;;;;;;10.68;96.09;98933.81;5073948;28;20202;-74
2022/12/29 06:42:13;;;;;;;0.00;0.00;;;;;;;10.73;94.89;98912.53;5074282;28;20174;-74
2022/12/29 06:44:39;;;;;;;0.10;0.10;;;;;;;10.85;93.45;98929.97;5073787;28;20635;-74
2022/12/29 06:47:04;;;;;;;0.10;0.10;;;;;;;10.83;93.66;98915.88;5074110;28;20638;-74
2022/12/29 06:49:29;;;;;;;0.00;0.00;;;;;;;10.88;92.78;98921.91;5073830;28;20175;-74
2022/12/29 06:51:54;;;;;;;0.00;0.00;;;;;;;10.88;93.05;98921.09;5074082;28;20185;-74
2022/12/29 06:54:20;;;;;;;0.00;0.00;;;;;;;10.92;92.49;98911.84;5073536;28;20166;-74
2022/12/29 06:56:45;;;;;;;0.00;0.00;;;;;;;10.88;92.92;98904.72;5072046;28;20163;-74
2022/12/29 06:59:10;;;;;;;0.10;0.10;;;;;;;10.87;93.53;98911.31;5074138;28;20285;-74
2022/12/29 07:01:36;;;;;;;0.10;0.10;;;;;;;10.87;92.75;98912.13;5072366;28;20630;-74
2022/12/29 07:04:02;;;;;;;0.33;0.10;;;;;;;10.94;91.55;98906.03;5073316;28;20646;-74
2022/12/29 07:06:27;;;;;;;0.00;0.00;;;;;;;10.93;90.82;98929.81;5073526;28;20510;-74
2022/12/29 07:08:54;;;;;;;0.10;0.10;;;;;;;10.99;90.33;98925.72;5073528;28;20179;-75
2022/12/29 07:11:21;;;;;;;0.20;0.20;;;;;;;11.12;89.06;98936.53;5073441;28;20175;-74
2022/12/29 07:13:46;;;;;;;0.10;0.10;;;;;;;11.16;88.47;98948.38;5073454;28;20188;-74
2022/12/29 07:16:12;;;;;;;0.00;0.00;;;;;;;11.18;87.67;98933.22;5073394;28;20224;-73
2022/12/29 07:18:37;;;;;;;0.10;0.10;;;;;;;11.23;87.16;98913.78;5073499;28;20202;-73
2022/12/29 07:21:03;;;;;;;0.20;0.20;;;;;;;11.28;86.28;98897.16;5073353;28;20174;-74
2022/12/29 07:23:29;;;;;;;0.00;0.00;;;;;;;11.27;85.42;98911.94;5073345;28;20177;-73
2022/12/29 07:26:02;;;;;;;0.13;0.13;;;;;;;11.28;85.29;98912.72;5073228;28;20178;-73
2022/12/29 07:28:28;;;;;;;0.00;0.00;;;;;;;11.20;85.29;98900.03;5073089;28;20182;-74
2022/12/29 07:30:53;;;;;;;0.43;0.10;;;;;;;11.16;85.44;98921.03;5071837;28;20171;-74
2022/12/29 07:33:18;;;;;;;0.00;0.00;;;;;;;11.23;84.11;98932.13;5072861;28;20167;-73
2022/12/29 07:35:44;;;;;;;0.13;0.13;;;;;;;11.34;83.67;98952.34;5073191;28;20166;-73
2022/12/29 07:38:09;;;;;;;0.00;0.00;;;;;;;11.28;84.05;98956.47;5072969;28;20233;-73
2022/12/29 07:40:34;;;;;;;0.00;0.00;;;;;;;11.21;85.13;98957.09;5072008;28;20913;-73
2022/12/29 07:42:59;;;;;;;0.00;0.00;;;;;;;11.16;86.06;98979.25;5071376;28;20178;-73
2022/12/29 07:45:25;;;;;;;0.20;0.10;;;;;;;11.10;86.55;98986.09;5072866;28;20646;-74
2022/12/29 07:47:50;;;;;;;0.63;0.10;;;;;;;11.03;87.56;98992.19;5072725;28;20543;-74
2022/12/29 07:50:15;;;;;;;0.10;0.10;;;;;;;11.10;87.46;99001.69;5072763;28;20174;-74
2022/12/29 07:52:41;;;;;;;0.37;0.27;;;;;;;11.15;86.70;98990.53;5072428;28;20181;-73
2022/12/29 07:55:06;;;;;;;0.03;0.00;;;;;;;11.14;86.59;98997.09;5072688;28;20224;-72
2022/12/29 07:57:32;;;;;;;0.10;0.10;;;;;;;11.07;87.33;99010.59;5072803;28;20289;-74
2022/12/29 07:59:57;;;;;;;0.07;0.03;;;;;;;10.90;88.89;99007.03;5072530;28;20225;-75
2022/12/29 08:02:22;;;;;;;0.10;0.10;;;;;;;10.75;89.22;98998.81;5072284;28;20723;-75
2022/12/29 08:04:47;;;;;;;0.10;0.10;;;;;;;10.60;91.16;99006.59;5071985;28;20186;-75
2022/12/29 08:07:13;;;;;;;0.33;0.20;;;;;;;10.38;94.64;99012.56;5072285;28;20640;-75
2022/12/29 08:09:38;;;;;;;0.10;0.10;;;;;;;10.25;97.91;99014.53;5072320;28;20202;-75
2022/12/29 08:12:03;;;;;;;0.20;0.20;;;;;;;10.23;99.77;99003.16;5072328;28;20181;-74
2022/12/29 08:14:29;;;;;;;0.10;0.10;;;;;;;10.14;100.00;99011.47;5072064;28;20641;-75
2022/12/29 08:16:54;;;;;;;0.00;0.00;;;;;;;10.13;100.00;99023.50;5072564;28;20639;-74
2022/12/29 08:19:19;;;;;;;0.10;0.10;;;;;;;10.08;100.00;99020.19;5072026;28;20300;-75
2022/12/29 08:21:45;;;;;;;0.03;0.00;;;;;;;10.09;100.00;99006.22;5072128;28;20181;-74
2022/12/29 08:24:10;;;;;;;0.00;0.00;;;;;;;10.10;100.00;99010.53;5071896;28;20646;-75
2022/12/29 08:26:35;;;;;;;0.00;0.00;;;;;;;10.07;100.00;99004.97;5070864;28;20171;-75
2022/12/29 08:29:01;;;;;;;0.03;0.03;;;;;;;10.08;100.00;99006.56;5072486;28;20206;-75
2022/12/29 08:31:26;;;;;;;0.00;0.00;;;;;;;10.17;100.00;98998.25;5071782;28;20190;-75
2022/12/29 08:33:51;;;;;;;0.00;0.00;;;;;;;10.24;100.00;99014.88;5071497;28;20179;-75
2022/12/29 08:36:17;;;;;;;0.00;0.00;;;;;;;10.31;100.00;99010.44;5071920;28;20253;-79
2022/12/29 08:38:42;;;;;;;0.00;0.00;;;;;;;10.41;100.00;98999.03;5070349;28;20228;-77
2022/12/29 08:41:07;;;;;;;2.90;0.30;;;;;;;10.51;98.87;99008.66;5072250;28;20189;-79
2022/12/29 08:43:33;;;;;;;0.20;0.10;;;;;;;10.52;97.79;99025.84;5071753;28;20166;-78
2022/12/29 08:45:58;;;;;;;0.00;0.00;;;;;;;10.68;96.00;99021.22;5070277;28;20170;-76
2022/12/29 08:48:24;;;;;;;0.00;0.00;;;;;;;10.69;95.18;99031.81;5071478;28;20178;-75
2022/12/29 08:50:50;;;;;;;0.10;0.10;;;;;;;10.66;95.20;99062.56;5070989;28;20170;-76
2022/12/29 08:53:17;;;;;;;0.00;0.00;;;;;;;10.56;97.64;99063.06;5071176;28;20657;-76
2022/12/29 08:55:45;;;;;;;0.17;0.17;;;;;;;10.13;100.00;99080.03;5071430;28;20438;-76
2022/12/29 08:58:14;;;;;;;0.03;0.03;;;;;;;9.79;100.00;99073.84;5071192;28;20248;-76
2022/12/29 09:00:39;;;;;;;0.10;0.10;;;;;;;9.57;100.00;99071.56;5071238;28;20190;-76
2022/12/29 09:03:05;;;;;;;0.00;0.00;;;;;;;9.38;100.00;99057.66;5070482;28;20570;-76
2022/12/29 09:05:30;;;;;;;0.20;0.20;;;;;;;9.30;100.00;99051.19;5070459;28;20269;-76
2022/12/29 09:07:55;;;;;;;0.00;0.00;;;;;;;9.32;100.00;99050.84;5070763;28;20217;-76
2022/12/29 09:10:20;;;;;;;0.20;0.20;;;;;;;9.32;100.00;99059.00;5070708;28;20575;-76
2022/12/29 09:12:46;;;;;;;0.43;0.10;;;;;;;9.38;100.00;99063.91;5070588;28;20171;-76
2022/12/29 09:15:12;;;;;;;0.00;0.00;;;;;;;9.53;100.00;99046.88;5070736;28;20170;-76
2022/12/29 09:17:40;;;;;;;0.83;0.20;;;;;;;9.57;100.00;99057.94;5070005;28;20183;-76
2022/12/29 09:20:06;;;;;;;0.10;0.10;;;;;;;9.60;100.00;99057.25;5070124;28;20214;-77
2022/12/29 09:22:31;;;;;;;0.20;0.20;;;;;;;9.62;100.00;99062.38;5070689;28;20202;-76
2022/12/29 09:24:57;;;;;;;0.30;0.10;;;;;;;9.65;100.00;99067.13;5069891;28;20170;-81
2022/12/29 09:27:22;;;;;;;1.43;0.40;;;;;;;9.62;100.00;99067.81;5070907;28;20618;-76
2022/12/29 09:29:47;;;;;;;0.07;0.00;;;;;;;9.58;100.00;99059.53;5071243;28;20189;-76
2022/12/29 09:32:12;;;;;;;0.00;0.00;;;;;;;9.60;100.00;99061.91;5070880;28;20570;-75
2022/12/29 09:34:38;;;;;;;0.50;0.30;;;;;;;9.58;100.00;99054.06;5070637;28;20177;-75
2022/12/29 09:37:03;;;;;;;0.00;0.00;;;;;;;9.60;100.00;99065.44;5070820;28;20178;-74
2022/12/29 09:39:28;;;;;;;0.00;0.00;;;;;;;9.63;100.00;99056.56;5070706;28;20202;-75
2022/12/29 09:42:03;;;;;;;0.00;0.00;;;;;;;9.65;100.00;99064.41;5070722;28;20174;-75
2022/12/29 09:44:51;;;;;;;0.13;0.10;;;;;;;9.56;100.00;99075.44;5069205;28;20174;-76
2022/12/29 09:47:18;;;;;;;0.33;0.33;;;;;;;9.50;100.00;99082.22;5070625;28;20685;-75
2022/12/29 09:49:53;;;;;;;0.40;0.40;;;;;;;9.49;100.00;99067.78;5070673;28;20210;-75
2022/12/29 09:52:25;;;;;;;0.00;0.00;;;;;;;9.50;100.00;99060.41;5070698;28;20158;-75
2022/12/29 09:54:56;;;;;;;0.00;0.00;;;;;;;9.53;100.00;99070.63;5070597;28;20178;-74
2022/12/29 09:57:26;;;;;;;0.10;0.10;;;;;;;9.60;100.00;99081.00;5070323;28;20185;-75
2022/12/29 09:59:59;;;;;;;2.47;0.40;;;;;;;9.64;100.00;99073.72;5070586;28;20293;-75
2022/12/29 10:02:33;;;;;;;0.27;0.27;;;;;;;9.71;100.00;99063.88;5072361;28;20175;-74
2022/12/29 10:04:58;;;;;;;0.57;0.57;;;;;;;9.82;100.00;99058.75;5073358;28;20217;-75
2022/12/29 10:07:30;;;;;;;3.00;0.73;;;;;;;9.91;100.00;99066.81;5074629;28;20594;-75
2022/12/29 10:10:00;;;;;;;0.30;0.30;;;;;;;10.07;100.00;99071.25;5074626;28;20179;-74
2022/12/29 10:12:44;;;;;;;0.67;0.37;;;;;;;10.19;100.00;99073.19;5074375;28;20170;-74
2022/12/29 10:15:40;;;;;;;0.60;0.23;;;;;;;10.31;100.00;99067.75;5074631;28;20194;-75
2022/12/29 10:18:24;;;;;;;1.60;0.20;;;;;;;10.42;100.00;99089.94;5074679;28;20162;-74
2022/12/29 10:20:57;;;;;;;0.00;0.00;;;;;;;10.45;97.56;99080.25;5073284;28;20627;-75
2022/12/29 10:23:34;;;;;;;0.33;0.33;;;;;;;10.45;96.98;99091.16;5074206;28;20383;-73
2022/12/29 10:26:02;;;;;;;0.30;0.20;;;;;;;10.45;95.69;99077.53;5074222;28;20528;-74
2022/12/29 10:29:06;;;;;;;3.00;0.27;;;;;;;10.49;94.53;99079.22;5074221;28;20213;-73
2022/12/29 10:31:43;;;;;;;0.30;0.30;;;;;;;10.61;93.00;99076.47;5074252;28;20537;-74
2022/12/29 10:34:29;;;;;;;0.93;0.47;;;;;;;10.67;91.46;99093.41;5073918;28;20166;-73
2022/12/29 10:37:00;;;;;;;0.40;0.30;;;;;;;10.70;89.75;99085.31;5073872;28;20170;-74
2022/12/29 10:39:40;;;;;;;0.20;0.20;;;;;;;10.70;88.02;99079.03;5074323;28;20216;-73
2022/12/29 10:42:08;;;;;;;1.93;0.60;;;;;;;10.73;87.38;99081.91;5072698;28;20182;-74
2022/12/29 10:44:34;;;;;;;0.53;0.20;;;;;;;10.81;86.78;99071.97;5073718;28;20171;-74
2022/12/29 10:47:04;;;;;;;0.20;0.20;;;;;;;10.75;87.90;99050.69;5073690;28;20236;-73
2022/12/29 10:49:33;;;;;;;0.47;0.27;;;;;;;10.76;87.64;99055.03;5073956;28;20629;-73
2022/12/29 10:52:02;;;;;;;0.53;0.53;;;;;;;10.72;86.66;99044.78;5073942;28;20198;-73
2022/12/29 10:54:56;;;;;;;2.40;2.20;;;;;;;10.71;86.40;99053.34;5073766;28;20174;-73
2022/12/29 10:57:29;;;;;;;1.27;0.90;;;;;;;10.69;86.42;99050.13;5075596;28;20167;-73
2022/12/29 10:59:54;;;;;;;0.37;0.37;;;;;;;10.69;87.13;99061.84;5083233;28;20194;-72
2022/12/29 11:02:43;;;;;;;4.60;0.87;;;;;;;10.73;86.86;99073.69;5074023;28;20184;-73
2022/12/29 11:05:45;;;;;;;0.10;0.10;;;;;;;10.76;85.48;99072.22;5073965;28;20167;-73
2022/12/29 11:08:17;;;;;;;0.17;0.17;;;;;;;10.73;85.21;99083.84;5048917;28;20212;-73
2022/12/29 11:10:44;;;;;;;1.97;0.87;;;;;;;10.75;84.88;99078.81;5074274;28;20240;-73
2022/12/29 11:13:24;;;;;;;0.30;0.27;;;;;;;10.76;83.83;99083.13;5073418;28;20178;-73
2022/12/29 11:15:51;;;;;;;4.30;1.00;;;;;;;10.77;83.15;99100.31;5073667;28;20174;-73
2022/12/29 11:18:33;;;;;;;1.73;0.80;;;;;;;10.84;81.66;99084.91;5073004;28;20202;-73
2022/12/29 11:21:02;;;;;;;3.30;0.57;;;;;;;10.88;81.04;99074.13;5072150;28;20224;-73
2022/12/29 11:23:39;;;;;;;0.53;0.40;;;;;;;10.91;80.22;99093.34;5073057;28;20171;-74
2022/12/29 11:26:20;;;;;;;1.53;0.50;;;;;;;10.97;79.14;99082.94;5073257;28;20518;-73
2022/12/29 11:29:23;;;;;;;1.33;0.80;;;;;;;10.96;78.18;99098.53;5073345;28;20173;-73
2022/12/29 11:31:57;;;;;;;2.57;0.83;;;;;;;10.89;77.34;99092.88;5071512;28;20270;-74
2022/12/29 11:34:35;;;;;;;0.50;0.20;;;;;;;10.86;77.30;99109.19;5073016;28;20165;-73
2022/12/29 11:37:10;;;;;;;0.20;0.20;;;;;;;10.81;77.39;99101.22;5072972;28;20165;-74
2022/12/29 11:39:51;;;;;;;3.63;0.50;;;;;;;10.77;77.33;99111.25;5072548;28;20206;-73
2022/12/29 11:42:19;;;;;;;0.50;0.50;;;;;;;10.71;78.12;99116.16;5072868;28;20174;-74
2022/12/29 11:44:47;;;;;;;0.60;0.60;;;;;;;10.70;79.07;99128.22;5073073;28;20189;-74
2022/12/29 11:47:27;;;;;;;0.80;0.50;;;;;;;10.66;79.56;99128.09;5072555;28;20289;-73
2022/12/29 11:49:56;;;;;;;0.13;0.13;;;;;;;10.63;80.83;99119.81;5073321;28;20154;-73
2022/12/29 11:52:28;;;;;;;1.30;0.40;;;;;;;10.63;80.34;99120.59;5072732;28;20170;-74
2022/12/29 11:54:55;;;;;;;0.00;0.00;;;;;;;10.64;79.15;99121.41;5072867;28;20642;-74
2022/12/29 11:57:23;;;;;;;0.00;0.00;;;;;;;10.64;79.07;99135.84;5071322;28;20608;-73
2022/12/29 11:59:51;;;;;;;0.00;0.00;;;;;;;10.71;78.41;99125.16;5072697;28;20300;-73
2022/12/29 12:02:20;;;;;;;0.13;0.10;;;;;;;10.76;78.97;99126.06;5072665;28;20175;-73
2022/12/29 12:04:48;;;;;;;0.30;0.30;;;;;;;10.83;77.05;99121.56;5072347;28;20183;-74
2022/12/29 12:08:07;;;;;;;0.50;0.20;;;;;;;10.77;77.49;99111.25;5072205;28;20223;-74
2022/12/29 12:10:44;;;;;;;0.03;0.03;;;;;;;10.77;76.85;99125.69;4990259;28;20583;-74
2022/12/29 12:13:37;;;;;;;3.10;0.60;;;;;;;10.79;76.39;99115.22;5071287;28;20194;-74
2022/12/29 12:16:09;;;;;;;0.00;0.00;;;;;;;10.75;77.21;99116.25;5070685;28;20229;-74
2022/12/29 12:18:41;;;;;;;0.47;0.30;;;;;;;10.72;76.87;99129.47;5071599;28;20692;-74